Gabo Island, Australia
Current Conditions -  °F | °C
As of 2:00 PM on Wednesday 22 Oct 2014 (Local Time) from YMER Reporting Station
Clear Clear  
Wind Chill: 68°   Ceiling: Unl
Heat Index: 68°   Visibility: 6mi
Dew Point: 52°   Wind: 14mph
Humidity: 56%   Direction: 40°NE
Pressure: 30.12"   Gusts: 26mph
Location:  37.56°S, 149.91°E
Report Text: YMER 220300Z AUTO 04012G23KT 9999 // NCD 20/11 Q1020
Loading
Personal Weather Stations






























Interactive Weather Map
Tropical Storm Tracking
New forecast layout! Learn more

10-Day Weather Forecast

Advertisements
Track Severe Weather on mobile